sensor_id;sensor_type;location;lat;lon;timestamp;P1;durP1;ratioP1;P2;durP2;ratioP2
7316;SDS011;3699;51.462;6.696;2023-04-03T00:01:25;14.57;;;10.20;;
7316;SDS011;3699;51.462;6.696;2023-04-03T00:03:51;14.77;;;10.47;;
7316;SDS011;3699;51.462;6.696;2023-04-03T00:06:19;15.07;;;9.93;;
7316;SDS011;3699;51.462;6.696;2023-04-03T00:08:48;16.70;;;10.97;;
7316;SDS011;3699;51.462;6.696;2023-04-03T00:11:14;17.90;;;11.23;;
7316;SDS011;3699;51.462;6.696;2023-04-03T00:13:41;17.57;;;11.37;;
7316;SDS011;3699;51.462;6.696;2023-04-03T00:16:09;18.60;;;12.10;;
7316;SDS011;3699;51.462;6.696;2023-04-03T00:18:37;18.33;;;11.27;;
7316;SDS011;3699;51.462;6.696;2023-04-03T00:21:05;16.37;;;11.17;;
7316;SDS011;3699;51.462;6.696;2023-04-03T00:23:33;16.27;;;10.70;;
7316;SDS011;3699;51.462;6.696;2023-04-03T00:26:01;17.07;;;11.37;;
7316;SDS011;3699;51.462;6.696;2023-04-03T00:28:28;18.67;;;11.40;;
7316;SDS011;3699;51.462;6.696;2023-04-03T00:30:55;15.67;;;10.87;;
7316;SDS011;3699;51.462;6.696;2023-04-03T00:33:22;16.40;;;11.70;;
7316;SDS011;3699;51.462;6.696;2023-04-03T00:35:49;19.23;;;11.37;;
7316;SDS011;3699;51.462;6.696;2023-04-03T00:38:17;17.30;;;10.53;;
7316;SDS011;3699;51.462;6.696;2023-04-03T00:40:47;17.07;;;12.07;;
7316;SDS011;3699;51.462;6.696;2023-04-03T00:43:16;16.03;;;10.33;;
7316;SDS011;3699;51.462;6.696;2023-04-03T00:45:46;19.73;;;10.70;;
7316;SDS011;3699;51.462;6.696;2023-04-03T00:48:15;15.50;;;10.77;;
7316;SDS011;3699;51.462;6.696;2023-04-03T00:50:45;15.90;;;10.77;;
7316;SDS011;3699;51.462;6.696;2023-04-03T00:53:14;15.80;;;10.77;;
7316;SDS011;3699;51.462;6.696;2023-04-03T00:55:45;16.93;;;11.07;;
7316;SDS011;3699;51.462;6.696;2023-04-03T00:58:15;17.47;;;10.40;;
7316;SDS011;3699;51.462;6.696;2023-04-03T01:00:46;19.27;;;10.80;;
7316;SDS011;3699;51.462;6.696;2023-04-03T01:03:21;14.90;;;10.60;;
7316;SDS011;3699;51.462;6.696;2023-04-03T01:05:47;21.77;;;11.40;;
7316;SDS011;3699;51.462;6.696;2023-04-03T01:08:15;16.73;;;10.47;;
7316;SDS011;3699;51.462;6.696;2023-04-03T01:10:41;16.50;;;10.37;;
7316;SDS011;3699;51.462;6.696;2023-04-03T01:13:21;16.00;;;9.97;;
7316;SDS011;3699;51.462;6.696;2023-04-03T01:15:51;19.00;;;10.63;;
7316;SDS011;3699;51.462;6.696;2023-04-03T01:18:17;14.17;;;10.13;;
7316;SDS011;3699;51.462;6.696;2023-04-03T01:24:08;13.00;;;9.03;;
7316;SDS011;3699;51.462;6.696;2023-04-03T01:26:43;16.63;;;9.70;;
7316;SDS011;3699;51.462;6.696;2023-04-03T01:29:11;14.63;;;9.87;;
7316;SDS011;3699;51.462;6.696;2023-04-03T01:31:47;14.33;;;8.80;;
7316;SDS011;3699;51.462;6.696;2023-04-03T01:34:15;12.87;;;8.67;;
7316;SDS011;3699;51.462;6.696;2023-04-03T01:36:42;10.80;;;7.50;;
7316;SDS011;3699;51.462;6.696;2023-04-03T01:39:09;11.27;;;7.70;;
7316;SDS011;3699;51.462;6.696;2023-04-03T01:41:36;14.10;;;7.43;;
7316;SDS011;3699;51.462;6.696;2023-04-03T01:44:03;12.03;;;6.73;;
7316;SDS011;3699;51.462;6.696;2023-04-03T01:46:30;10.80;;;7.07;;
7316;SDS011;3699;51.462;6.696;2023-04-03T01:48:59;9.23;;;6.67;;
7316;SDS011;3699;51.462;6.696;2023-04-03T01:51:26;10.70;;;6.77;;
7316;SDS011;3699;51.462;6.696;2023-04-03T01:53:52;14.37;;;7.53;;
7316;SDS011;3699;51.462;6.696;2023-04-03T01:56:20;8.67;;;6.73;;
7316;SDS011;3699;51.462;6.696;2023-04-03T01:58:46;7.97;;;5.70;;
7316;SDS011;3699;51.462;6.696;2023-04-03T02:01:13;13.53;;;5.90;;
7316;SDS011;3699;51.462;6.696;2023-04-03T02:03:41;7.07;;;5.43;;
7316;SDS011;3699;51.462;6.696;2023-04-03T02:06:09;9.83;;;5.70;;
7316;SDS011;3699;51.462;6.696;2023-04-03T02:08:36;6.87;;;6.03;;
7316;SDS011;3699;51.462;6.696;2023-04-03T02:11:03;8.73;;;4.83;;
7316;SDS011;3699;51.462;6.696;2023-04-03T02:13:30;6.83;;;5.10;;
7316;SDS011;3699;51.462;6.696;2023-04-03T02:15:56;7.73;;;5.00;;
7316;SDS011;3699;51.462;6.696;2023-04-03T02:18:24;7.67;;;4.40;;
7316;SDS011;3699;51.462;6.696;2023-04-03T02:20:51;9.07;;;4.40;;
7316;SDS011;3699;51.462;6.696;2023-04-03T02:23:19;6.67;;;4.40;;
7316;SDS011;3699;51.462;6.696;2023-04-03T02:25:46;4.63;;;3.63;;
7316;SDS011;3699;51.462;6.696;2023-04-03T02:28:14;6.73;;;4.07;;
7316;SDS011;3699;51.462;6.696;2023-04-03T02:30:41;4.97;;;4.07;;
7316;SDS011;3699;51.462;6.696;2023-04-03T02:33:08;6.33;;;4.07;;
7316;SDS011;3699;51.462;6.696;2023-04-03T02:35:35;5.90;;;3.97;;
7316;SDS011;3699;51.462;6.696;2023-04-03T02:38:02;5.93;;;3.50;;
7316;SDS011;3699;51.462;6.696;2023-04-03T02:40:31;5.37;;;3.70;;
7316;SDS011;3699;51.462;6.696;2023-04-03T02:42:58;4.47;;;3.50;;
7316;SDS011;3699;51.462;6.696;2023-04-03T02:45:25;6.60;;;4.10;;
7316;SDS011;3699;51.462;6.696;2023-04-03T02:47:52;5.13;;;3.37;;
7316;SDS011;3699;51.462;6.696;2023-04-03T02:50:18;5.97;;;3.33;;
7316;SDS011;3699;51.462;6.696;2023-04-03T02:52:45;3.43;;;2.90;;
7316;SDS011;3699;51.462;6.696;2023-04-03T02:55:13;7.00;;;3.50;;
7316;SDS011;3699;51.462;6.696;2023-04-03T02:57:42;6.53;;;3.40;;
7316;SDS011;3699;51.462;6.696;2023-04-03T03:00:09;9.73;;;3.60;;
7316;SDS011;3699;51.462;6.696;2023-04-03T03:02:36;4.93;;;3.27;;
7316;SDS011;3699;51.462;6.696;2023-04-03T03:05:03;4.57;;;2.97;;
7316;SDS011;3699;51.462;6.696;2023-04-03T03:07:30;7.37;;;3.63;;
7316;SDS011;3699;51.462;6.696;2023-04-03T03:09:57;3.93;;;3.03;;
7316;SDS011;3699;51.462;6.696;2023-04-03T03:12:24;4.67;;;2.80;;
7316;SDS011;3699;51.462;6.696;2023-04-03T03:14:52;6.10;;;2.67;;
7316;SDS011;3699;51.462;6.696;2023-04-03T03:17:19;4.97;;;3.30;;
7316;SDS011;3699;51.462;6.696;2023-04-03T03:19:45;6.60;;;2.77;;
7316;SDS011;3699;51.462;6.696;2023-04-03T03:22:12;6.63;;;3.17;;
7316;SDS011;3699;51.462;6.696;2023-04-03T03:24:40;9.40;;;2.77;;
7316;SDS011;3699;51.462;6.696;2023-04-03T03:27:07;4.20;;;2.53;;
7316;SDS011;3699;51.462;6.696;2023-04-03T03:29:34;5.73;;;2.57;;
7316;SDS011;3699;51.462;6.696;2023-04-03T03:32:02;5.07;;;2.80;;
7316;SDS011;3699;51.462;6.696;2023-04-03T03:34:29;5.93;;;3.27;;
7316;SDS011;3699;51.462;6.696;2023-04-03T03:36:56;3.73;;;2.23;;
7316;SDS011;3699;51.462;6.696;2023-04-03T03:39:22;6.13;;;2.77;;
7316;SDS011;3699;51.462;6.696;2023-04-03T03:41:49;8.07;;;2.60;;
7316;SDS011;3699;51.462;6.696;2023-04-03T03:44:18;7.60;;;2.50;;
7316;SDS011;3699;51.462;6.696;2023-04-03T03:46:45;5.83;;;2.80;;
7316;SDS011;3699;51.462;6.696;2023-04-03T03:49:13;7.00;;;2.40;;
7316;SDS011;3699;51.462;6.696;2023-04-03T03:51:40;4.40;;;3.03;;
7316;SDS011;3699;51.462;6.696;2023-04-03T03:54:07;6.60;;;2.70;;
7316;SDS011;3699;51.462;6.696;2023-04-03T03:56:33;7.27;;;2.53;;
7316;SDS011;3699;51.462;6.696;2023-04-03T03:59:00;7.50;;;3.07;;
7316;SDS011;3699;51.462;6.696;2023-04-03T04:01:27;3.13;;;2.37;;
7316;SDS011;3699;51.462;6.696;2023-04-03T04:03:54;3.30;;;2.77;;
7316;SDS011;3699;51.462;6.696;2023-04-03T04:06:23;6.30;;;2.77;;
7316;SDS011;3699;51.462;6.696;2023-04-03T04:08:50;6.27;;;3.00;;
7316;SDS011;3699;51.462;6.696;2023-04-03T04:11:16;6.97;;;3.30;;
7316;SDS011;3699;51.462;6.696;2023-04-03T04:13:44;5.47;;;3.40;;
7316;SDS011;3699;51.462;6.696;2023-04-03T04:16:11;4.87;;;3.30;;
7316;SDS011;3699;51.462;6.696;2023-04-03T04:18:37;6.33;;;3.20;;
7316;SDS011;3699;51.462;6.696;2023-04-03T04:21:04;10.33;;;3.00;;
7316;SDS011;3699;51.462;6.696;2023-04-03T04:23:32;7.23;;;3.50;;
7316;SDS011;3699;51.462;6.696;2023-04-03T04:25:59;8.77;;;3.10;;
7316;SDS011;3699;51.462;6.696;2023-04-03T04:28:26;6.70;;;3.00;;
7316;SDS011;3699;51.462;6.696;2023-04-03T04:30:53;9.10;;;3.33;;
7316;SDS011;3699;51.462;6.696;2023-04-03T04:33:20;7.77;;;2.80;;
7316;SDS011;3699;51.462;6.696;2023-04-03T04:35:47;5.47;;;2.80;;
7316;SDS011;3699;51.462;6.696;2023-04-03T04:38:14;6.40;;;2.90;;
7316;SDS011;3699;51.462;6.696;2023-04-03T04:40:43;5.37;;;3.10;;
7316;SDS011;3699;51.462;6.696;2023-04-03T04:43:10;9.23;;;3.40;;
7316;SDS011;3699;51.462;6.696;2023-04-03T04:45:39;7.63;;;2.60;;
7316;SDS011;3699;51.462;6.696;2023-04-03T04:48:06;5.83;;;3.10;;
7316;SDS011;3699;51.462;6.696;2023-04-03T04:50:32;7.03;;;3.10;;
7316;SDS011;3699;51.462;6.696;2023-04-03T04:52:59;7.40;;;3.37;;
7316;SDS011;3699;51.462;6.696;2023-04-03T04:55:26;3.87;;;2.80;;
7316;SDS011;3699;51.462;6.696;2023-04-03T04:57:55;8.07;;;3.07;;
7316;SDS011;3699;51.462;6.696;2023-04-03T05:00:21;5.23;;;2.67;;
7316;SDS011;3699;51.462;6.696;2023-04-03T05:02:48;6.37;;;2.87;;
7316;SDS011;3699;51.462;6.696;2023-04-03T05:05:15;6.33;;;2.87;;
7316;SDS011;3699;51.462;6.696;2023-04-03T05:07:42;5.17;;;2.87;;
7316;SDS011;3699;51.462;6.696;2023-04-03T05:10:09;6.07;;;2.60;;
7316;SDS011;3699;51.462;6.696;2023-04-03T05:12:36;8.77;;;3.60;;
7316;SDS011;3699;51.462;6.696;2023-04-03T05:15:05;7.50;;;3.30;;
7316;SDS011;3699;51.462;6.696;2023-04-03T05:17:33;6.73;;;2.63;;
7316;SDS011;3699;51.462;6.696;2023-04-03T05:20:00;11.90;;;3.50;;
7316;SDS011;3699;51.462;6.696;2023-04-03T05:22:28;6.70;;;3.43;;
7316;SDS011;3699;51.462;6.696;2023-04-03T05:24:55;5.97;;;3.13;;
7316;SDS011;3699;51.462;6.696;2023-04-03T05:27:21;7.47;;;3.30;;
7316;SDS011;3699;51.462;6.696;2023-04-03T05:29:49;6.27;;;3.50;;
7316;SDS011;3699;51.462;6.696;2023-04-03T05:32:17;13.67;;;3.20;;
7316;SDS011;3699;51.462;6.696;2023-04-03T05:34:44;4.80;;;3.37;;
7316;SDS011;3699;51.462;6.696;2023-04-03T05:37:11;6.43;;;3.40;;
7316;SDS011;3699;51.462;6.696;2023-04-03T05:39:38;5.97;;;2.90;;
7316;SDS011;3699;51.462;6.696;2023-04-03T05:42:05;11.03;;;3.20;;
7316;SDS011;3699;51.462;6.696;2023-04-03T05:44:33;5.40;;;3.27;;
7316;SDS011;3699;51.462;6.696;2023-04-03T05:47:00;4.87;;;3.10;;
7316;SDS011;3699;51.462;6.696;2023-04-03T05:49:28;5.47;;;2.43;;
7316;SDS011;3699;51.462;6.696;2023-04-03T05:51:55;6.30;;;3.20;;
7316;SDS011;3699;51.462;6.696;2023-04-03T05:54:23;8.37;;;2.57;;
7316;SDS011;3699;51.462;6.696;2023-04-03T05:56:50;6.87;;;3.20;;
7316;SDS011;3699;51.462;6.696;2023-04-03T05:59:17;3.73;;;2.73;;
7316;SDS011;3699;51.462;6.696;2023-04-03T06:01:45;8.03;;;2.87;;
7316;SDS011;3699;51.462;6.696;2023-04-03T06:04:12;5.63;;;2.93;;
7316;SDS011;3699;51.462;6.696;2023-04-03T06:06:44;7.53;;;3.30;;
7316;SDS011;3699;51.462;6.696;2023-04-03T06:09:12;5.63;;;2.80;;
7316;SDS011;3699;51.462;6.696;2023-04-03T06:11:40;9.43;;;3.10;;
7316;SDS011;3699;51.462;6.696;2023-04-03T06:14:07;5.20;;;2.87;;
7316;SDS011;3699;51.462;6.696;2023-04-03T06:16:34;8.90;;;3.20;;
7316;SDS011;3699;51.462;6.696;2023-04-03T06:19:02;7.50;;;3.13;;
7316;SDS011;3699;51.462;6.696;2023-04-03T06:21:29;6.83;;;4.00;;
7316;SDS011;3699;51.462;6.696;2023-04-03T06:23:57;8.03;;;3.33;;
7316;SDS011;3699;51.462;6.696;2023-04-03T06:26:24;7.17;;;3.50;;
7316;SDS011;3699;51.462;6.696;2023-04-03T06:28:52;8.83;;;3.20;;
7316;SDS011;3699;51.462;6.696;2023-04-03T06:31:18;5.37;;;3.73;;
7316;SDS011;3699;51.462;6.696;2023-04-03T06:33:46;8.50;;;3.97;;
7316;SDS011;3699;51.462;6.696;2023-04-03T06:36:13;6.50;;;3.37;;
7316;SDS011;3699;51.462;6.696;2023-04-03T06:38:40;5.70;;;2.80;;
7316;SDS011;3699;51.462;6.696;2023-04-03T06:41:08;8.10;;;3.77;;
7316;SDS011;3699;51.462;6.696;2023-04-03T06:43:35;11.77;;;2.77;;
7316;SDS011;3699;51.462;6.696;2023-04-03T06:46:01;5.07;;;3.10;;
7316;SDS011;3699;51.462;6.696;2023-04-03T06:48:29;6.03;;;2.80;;
7316;SDS011;3699;51.462;6.696;2023-04-03T06:50:56;5.93;;;2.80;;
7316;SDS011;3699;51.462;6.696;2023-04-03T06:53:22;7.40;;;3.13;;
7316;SDS011;3699;51.462;6.696;2023-04-03T06:55:50;9.20;;;3.70;;
7316;SDS011;3699;51.462;6.696;2023-04-03T06:58:18;6.57;;;3.10;;
7316;SDS011;3699;51.462;6.696;2023-04-03T07:00:45;12.27;;;3.33;;
7316;SDS011;3699;51.462;6.696;2023-04-03T07:03:12;11.17;;;4.20;;
7316;SDS011;3699;51.462;6.696;2023-04-03T07:05:38;5.83;;;3.40;;
7316;SDS011;3699;51.462;6.696;2023-04-03T07:08:05;6.27;;;2.77;;
7316;SDS011;3699;51.462;6.696;2023-04-03T07:10:32;7.03;;;3.17;;
7316;SDS011;3699;51.462;6.696;2023-04-03T07:12:59;9.07;;;4.43;;
7316;SDS011;3699;51.462;6.696;2023-04-03T07:15:28;12.07;;;3.73;;
7316;SDS011;3699;51.462;6.696;2023-04-03T07:17:54;4.57;;;2.43;;
7316;SDS011;3699;51.462;6.696;2023-04-03T07:20:21;5.70;;;3.07;;
7316;SDS011;3699;51.462;6.696;2023-04-03T07:22:48;5.63;;;2.73;;
7316;SDS011;3699;51.462;6.696;2023-04-03T07:25:16;5.83;;;3.00;;
7316;SDS011;3699;51.462;6.696;2023-04-03T07:27:43;6.80;;;3.00;;
7316;SDS011;3699;51.462;6.696;2023-04-03T07:30:10;9.10;;;3.23;;
7316;SDS011;3699;51.462;6.696;2023-04-03T07:32:40;5.43;;;2.97;;
7316;SDS011;3699;51.462;6.696;2023-04-03T07:35:07;7.27;;;3.67;;
7316;SDS011;3699;51.462;6.696;2023-04-03T07:37:34;10.30;;;4.10;;
7316;SDS011;3699;51.462;6.696;2023-04-03T07:40:01;6.63;;;3.30;;
7316;SDS011;3699;51.462;6.696;2023-04-03T07:42:29;5.87;;;3.03;;
7316;SDS011;3699;51.462;6.696;2023-04-03T07:44:56;6.37;;;3.27;;
7316;SDS011;3699;51.462;6.696;2023-04-03T07:47:23;6.97;;;4.03;;
7316;SDS011;3699;51.462;6.696;2023-04-03T07:49:52;7.83;;;3.10;;
7316;SDS011;3699;51.462;6.696;2023-04-03T07:52:19;6.87;;;2.87;;
7316;SDS011;3699;51.462;6.696;2023-04-03T07:54:45;7.53;;;3.07;;
7316;SDS011;3699;51.462;6.696;2023-04-03T07:57:12;5.73;;;3.03;;
7316;SDS011;3699;51.462;6.696;2023-04-03T07:59:39;8.77;;;3.53;;
7316;SDS011;3699;51.462;6.696;2023-04-03T08:02:08;6.30;;;3.37;;
7316;SDS011;3699;51.462;6.696;2023-04-03T08:04:36;7.60;;;3.43;;
7316;SDS011;3699;51.462;6.696;2023-04-03T08:07:04;5.33;;;3.23;;
7316;SDS011;3699;51.462;6.696;2023-04-03T08:09:30;10.67;;;3.47;;
7316;SDS011;3699;51.462;6.696;2023-04-03T08:11:58;5.77;;;3.70;;
7316;SDS011;3699;51.462;6.696;2023-04-03T08:14:26;5.17;;;2.63;;
7316;SDS011;3699;51.462;6.696;2023-04-03T08:16:52;5.27;;;2.70;;
7316;SDS011;3699;51.462;6.696;2023-04-03T08:19:19;4.90;;;2.40;;
7316;SDS011;3699;51.462;6.696;2023-04-03T08:21:46;7.53;;;2.77;;
7316;SDS011;3699;51.462;6.696;2023-04-03T08:24:14;3.70;;;2.27;;
7316;SDS011;3699;51.462;6.696;2023-04-03T08:26:41;2.40;;;2.10;;
7316;SDS011;3699;51.462;6.696;2023-04-03T08:29:08;3.90;;;2.57;;
7316;SDS011;3699;51.462;6.696;2023-04-03T08:31:35;3.53;;;2.30;;
7316;SDS011;3699;51.462;6.696;2023-04-03T08:34:02;4.87;;;2.10;;
7316;SDS011;3699;51.462;6.696;2023-04-03T08:36:29;4.60;;;2.17;;
7316;SDS011;3699;51.462;6.696;2023-04-03T08:38:56;4.73;;;2.13;;
7316;SDS011;3699;51.462;6.696;2023-04-03T08:41:27;3.23;;;2.00;;
7316;SDS011;3699;51.462;6.696;2023-04-03T08:43:58;6.50;;;2.80;;
7316;SDS011;3699;51.462;6.696;2023-04-03T08:46:42;5.80;;;2.50;;
7316;SDS011;3699;51.462;6.696;2023-04-03T08:49:20;6.10;;;2.27;;
7316;SDS011;3699;51.462;6.696;2023-04-03T08:51:50;3.93;;;2.30;;
7316;SDS011;3699;51.462;6.696;2023-04-03T08:54:23;3.43;;;2.00;;
7316;SDS011;3699;51.462;6.696;2023-04-03T08:56:55;3.23;;;2.20;;
7316;SDS011;3699;51.462;6.696;2023-04-03T08:59:24;4.70;;;2.10;;
7316;SDS011;3699;51.462;6.696;2023-04-03T09:01:54;3.23;;;2.00;;
7316;SDS011;3699;51.462;6.696;2023-04-03T09:04:24;7.67;;;3.10;;
7316;SDS011;3699;51.462;6.696;2023-04-03T09:07:04;5.50;;;1.83;;
7316;SDS011;3699;51.462;6.696;2023-04-03T09:09:40;2.80;;;1.93;;
7316;SDS011;3699;51.462;6.696;2023-04-03T09:12:13;4.53;;;2.10;;
7316;SDS011;3699;51.462;6.696;2023-04-03T09:14:46;3.07;;;1.60;;
7316;SDS011;3699;51.462;6.696;2023-04-03T09:17:21;2.07;;;1.83;;
7316;SDS011;3699;51.462;6.696;2023-04-03T09:19:56;2.43;;;1.70;;
7316;SDS011;3699;51.462;6.696;2023-04-03T09:22:31;5.83;;;1.80;;
7316;SDS011;3699;51.462;6.696;2023-04-03T09:25:11;3.77;;;1.80;;
7316;SDS011;3699;51.462;6.696;2023-04-03T09:27:43;6.37;;;2.10;;
7316;SDS011;3699;51.462;6.696;2023-04-03T09:30:12;2.90;;;2.03;;
7316;SDS011;3699;51.462;6.696;2023-04-03T09:32:40;5.03;;;2.10;;
7316;SDS011;3699;51.462;6.696;2023-04-03T09:35:10;3.90;;;2.20;;
7316;SDS011;3699;51.462;6.696;2023-04-03T09:37:45;2.40;;;2.00;;
7316;SDS011;3699;51.462;6.696;2023-04-03T09:40:27;3.27;;;1.87;;
7316;SDS011;3699;51.462;6.696;2023-04-03T09:42:59;6.87;;;2.10;;
7316;SDS011;3699;51.462;6.696;2023-04-03T09:45:27;2.80;;;1.57;;
7316;SDS011;3699;51.462;6.696;2023-04-03T09:48:06;3.07;;;1.80;;
7316;SDS011;3699;51.462;6.696;2023-04-03T09:50:34;2.73;;;1.77;;
7316;SDS011;3699;51.462;6.696;2023-04-03T09:53:05;4.17;;;1.83;;
7316;SDS011;3699;51.462;6.696;2023-04-03T09:55:51;8.67;;;1.67;;
7316;SDS011;3699;51.462;6.696;2023-04-03T09:58:26;2.33;;;1.70;;
7316;SDS011;3699;51.462;6.696;2023-04-03T10:00:55;3.80;;;2.03;;
7316;SDS011;3699;51.462;6.696;2023-04-03T10:03:24;1.70;;;1.60;;
7316;SDS011;3699;51.462;6.696;2023-04-03T10:05:53;5.67;;;1.57;;
7316;SDS011;3699;51.462;6.696;2023-04-03T10:08:23;5.20;;;1.77;;
7316;SDS011;3699;51.462;6.696;2023-04-03T10:11:05;3.77;;;2.00;;
7316;SDS011;3699;51.462;6.696;2023-04-03T10:13:37;4.97;;;1.60;;
7316;SDS011;3699;51.462;6.696;2023-04-03T10:16:16;5.80;;;1.87;;
7316;SDS011;3699;51.462;6.696;2023-04-03T10:18:46;5.20;;;1.83;;
7316;SDS011;3699;51.462;6.696;2023-04-03T10:21:24;3.43;;;2.40;;
7316;SDS011;3699;51.462;6.696;2023-04-03T10:24:02;4.33;;;1.40;;
7316;SDS011;3699;51.462;6.696;2023-04-03T10:26:38;2.37;;;1.47;;
7316;SDS011;3699;51.462;6.696;2023-04-03T10:29:15;3.40;;;1.70;;
7316;SDS011;3699;51.462;6.696;2023-04-03T10:31:49;4.57;;;2.50;;
7316;SDS011;3699;51.462;6.696;2023-04-03T10:34:22;2.73;;;1.60;;
7316;SDS011;3699;51.462;6.696;2023-04-03T10:36:54;2.63;;;1.60;;
7316;SDS011;3699;51.462;6.696;2023-04-03T10:39:30;4.80;;;1.70;;
7316;SDS011;3699;51.462;6.696;2023-04-03T10:42:03;4.00;;;2.00;;
7316;SDS011;3699;51.462;6.696;2023-04-03T10:44:40;7.47;;;2.20;;
7316;SDS011;3699;51.462;6.696;2023-04-03T10:47:26;2.40;;;1.63;;
7316;SDS011;3699;51.462;6.696;2023-04-03T10:49:59;3.97;;;1.97;;
7316;SDS011;3699;51.462;6.696;2023-04-03T10:52:50;3.37;;;2.23;;
7316;SDS011;3699;51.462;6.696;2023-04-03T10:55:24;10.20;;;2.33;;
7316;SDS011;3699;51.462;6.696;2023-04-03T10:58:00;5.87;;;2.27;;
7316;SDS011;3699;51.462;6.696;2023-04-03T11:00:33;3.30;;;1.80;;
7316;SDS011;3699;51.462;6.696;2023-04-03T11:03:05;6.40;;;1.90;;
7316;SDS011;3699;51.462;6.696;2023-04-03T11:05:36;4.00;;;2.03;;
7316;SDS011;3699;51.462;6.696;2023-04-03T11:08:10;3.77;;;2.70;;
7316;SDS011;3699;51.462;6.696;2023-04-03T11:10:42;5.57;;;2.50;;
7316;SDS011;3699;51.462;6.696;2023-04-03T11:13:11;5.53;;;1.73;;
7316;SDS011;3699;51.462;6.696;2023-04-03T11:15:42;3.20;;;1.70;;
7316;SDS011;3699;51.462;6.696;2023-04-03T11:18:11;17.03;;;2.57;;
7316;SDS011;3699;51.462;6.696;2023-04-03T11:20:42;4.10;;;2.30;;
7316;SDS011;3699;51.462;6.696;2023-04-03T11:23:15;6.13;;;3.47;;
7316;SDS011;3699;51.462;6.696;2023-04-03T11:25:47;3.20;;;2.10;;
7316;SDS011;3699;51.462;6.696;2023-04-03T11:28:18;6.10;;;2.83;;
7316;SDS011;3699;51.462;6.696;2023-04-03T11:30:47;3.93;;;2.23;;
7316;SDS011;3699;51.462;6.696;2023-04-03T11:33:24;1.90;;;1.70;;
7316;SDS011;3699;51.462;6.696;2023-04-03T11:35:58;3.53;;;1.97;;
7316;SDS011;3699;51.462;6.696;2023-04-03T11:38:29;4.03;;;2.50;;
7316;SDS011;3699;51.462;6.696;2023-04-03T11:41:01;5.27;;;2.93;;
7316;SDS011;3699;51.462;6.696;2023-04-03T11:43:30;2.90;;;2.07;;
7316;SDS011;3699;51.462;6.696;2023-04-03T11:46:00;6.07;;;2.17;;
7316;SDS011;3699;51.462;6.696;2023-04-03T11:48:42;2.73;;;1.87;;
7316;SDS011;3699;51.462;6.696;2023-04-03T12:12:29;4.87;;;2.30;;
7316;SDS011;3699;51.462;6.696;2023-04-03T12:15:18;6.13;;;2.57;;
7316;SDS011;3699;51.462;6.696;2023-04-03T12:17:48;3.40;;;1.70;;
7316;SDS011;3699;51.462;6.696;2023-04-03T12:23:27;2.00;;;1.80;;
7316;SDS011;3699;51.462;6.696;2023-04-03T12:25:59;4.67;;;2.10;;
7316;SDS011;3699;51.462;6.696;2023-04-03T12:28:40;2.67;;;2.13;;
7316;SDS011;3699;51.462;6.696;2023-04-03T12:31:08;3.03;;;1.90;;
7316;SDS011;3699;51.462;6.696;2023-04-03T12:33:38;2.43;;;1.90;;
7316;SDS011;3699;51.462;6.696;2023-04-03T12:36:23;3.40;;;2.13;;
7316;SDS011;3699;51.462;6.696;2023-04-03T12:39:09;4.50;;;2.37;;
7316;SDS011;3699;51.462;6.696;2023-04-03T12:41:49;2.53;;;1.80;;
7316;SDS011;3699;51.462;6.696;2023-04-03T12:44:27;2.83;;;2.03;;
7316;SDS011;3699;51.462;6.696;2023-04-03T12:47:10;3.70;;;2.30;;
7316;SDS011;3699;51.462;6.696;2023-04-03T12:49:49;2.70;;;1.80;;
7316;SDS011;3699;51.462;6.696;2023-04-03T12:52:21;2.53;;;2.03;;
7316;SDS011;3699;51.462;6.696;2023-04-03T12:54:57;2.70;;;2.00;;
7316;SDS011;3699;51.462;6.696;2023-04-03T12:57:27;4.03;;;2.10;;
7316;SDS011;3699;51.462;6.696;2023-04-03T12:59:54;1.70;;;1.60;;
7316;SDS011;3699;51.462;6.696;2023-04-03T13:02:22;4.40;;;1.80;;
7316;SDS011;3699;51.462;6.696;2023-04-03T13:04:50;6.20;;;1.67;;
7316;SDS011;3699;51.462;6.696;2023-04-03T13:07:22;5.00;;;1.90;;
7316;SDS011;3699;51.462;6.696;2023-04-03T13:09:57;3.27;;;1.83;;
7316;SDS011;3699;51.462;6.696;2023-04-03T13:12:25;2.87;;;1.97;;
7316;SDS011;3699;51.462;6.696;2023-04-03T13:14:52;6.57;;;2.20;;
7316;SDS011;3699;51.462;6.696;2023-04-03T13:17:20;1.40;;;1.30;;
7316;SDS011;3699;51.462;6.696;2023-04-03T13:19:48;1.67;;;1.57;;
7316;SDS011;3699;51.462;6.696;2023-04-03T13:22:19;3.23;;;1.83;;
7316;SDS011;3699;51.462;6.696;2023-04-03T13:24:53;2.47;;;1.60;;
7316;SDS011;3699;51.462;6.696;2023-04-03T13:27:24;3.60;;;1.63;;
7316;SDS011;3699;51.462;6.696;2023-04-03T13:29:51;2.27;;;1.70;;
7316;SDS011;3699;51.462;6.696;2023-04-03T13:32:20;5.27;;;3.20;;
7316;SDS011;3699;51.462;6.696;2023-04-03T13:34:49;7.63;;;1.80;;
7316;SDS011;3699;51.462;6.696;2023-04-03T13:37:20;4.27;;;1.77;;
7316;SDS011;3699;51.462;6.696;2023-04-03T13:39:56;1.53;;;1.40;;
7316;SDS011;3699;51.462;6.696;2023-04-03T13:42:28;1.90;;;1.80;;
7316;SDS011;3699;51.462;6.696;2023-04-03T13:45:08;3.10;;;1.93;;
7316;SDS011;3699;51.462;6.696;2023-04-03T13:47:38;4.97;;;2.20;;
7316;SDS011;3699;51.462;6.696;2023-04-03T13:50:13;4.70;;;2.33;;
7316;SDS011;3699;51.462;6.696;2023-04-03T13:52:42;2.23;;;1.93;;
7316;SDS011;3699;51.462;6.696;2023-04-03T13:55:15;4.93;;;2.40;;
7316;SDS011;3699;51.462;6.696;2023-04-03T13:57:50;4.73;;;2.33;;
7316;SDS011;3699;51.462;6.696;2023-04-03T14:00:19;4.67;;;2.67;;
7316;SDS011;3699;51.462;6.696;2023-04-03T14:02:54;7.13;;;3.40;;
7316;SDS011;3699;51.462;6.696;2023-04-03T14:05:23;4.53;;;2.40;;
7316;SDS011;3699;51.462;6.696;2023-04-03T14:07:50;6.57;;;2.93;;
7316;SDS011;3699;51.462;6.696;2023-04-03T14:10:17;7.73;;;4.17;;
7316;SDS011;3699;51.462;6.696;2023-04-03T14:12:44;9.10;;;4.93;;
7316;SDS011;3699;51.462;6.696;2023-04-03T14:15:15;6.77;;;3.33;;
7316;SDS011;3699;51.462;6.696;2023-04-03T14:17:44;7.53;;;3.97;;
7316;SDS011;3699;51.462;6.696;2023-04-03T14:20:14;3.83;;;1.90;;
7316;SDS011;3699;51.462;6.696;2023-04-03T14:22:41;3.40;;;1.90;;
7316;SDS011;3699;51.462;6.696;2023-04-03T14:25:09;2.10;;;1.70;;
7316;SDS011;3699;51.462;6.696;2023-04-03T14:27:37;2.53;;;1.83;;
7316;SDS011;3699;51.462;6.696;2023-04-03T14:30:06;3.67;;;2.20;;
7316;SDS011;3699;51.462;6.696;2023-04-03T14:32:36;1.70;;;1.60;;
7316;SDS011;3699;51.462;6.696;2023-04-03T14:35:03;2.43;;;1.73;;
7316;SDS011;3699;51.462;6.696;2023-04-03T14:37:31;5.77;;;2.20;;
7316;SDS011;3699;51.462;6.696;2023-04-03T14:39:59;1.97;;;1.77;;
7316;SDS011;3699;51.462;6.696;2023-04-03T14:42:28;7.93;;;3.03;;
7316;SDS011;3699;51.462;6.696;2023-04-03T14:44:56;3.40;;;1.90;;
7316;SDS011;3699;51.462;6.696;2023-04-03T14:47:24;6.83;;;2.70;;
7316;SDS011;3699;51.462;6.696;2023-04-03T14:49:55;3.30;;;1.80;;
7316;SDS011;3699;51.462;6.696;2023-04-03T14:52:22;7.27;;;2.03;;
7316;SDS011;3699;51.462;6.696;2023-04-03T14:54:51;4.43;;;2.50;;
7316;SDS011;3699;51.462;6.696;2023-04-03T14:57:19;2.63;;;2.00;;
7316;SDS011;3699;51.462;6.696;2023-04-03T14:59:50;4.20;;;1.77;;
7316;SDS011;3699;51.462;6.696;2023-04-03T15:02:27;4.13;;;2.30;;
7316;SDS011;3699;51.462;6.696;2023-04-03T15:04:57;4.93;;;2.03;;
7316;SDS011;3699;51.462;6.696;2023-04-03T15:07:26;4.67;;;2.00;;
7316;SDS011;3699;51.462;6.696;2023-04-03T15:09:54;3.10;;;1.90;;
7316;SDS011;3699;51.462;6.696;2023-04-03T15:12:21;5.60;;;1.90;;
7316;SDS011;3699;51.462;6.696;2023-04-03T15:14:48;4.00;;;2.13;;
7316;SDS011;3699;51.462;6.696;2023-04-03T15:17:16;2.03;;;1.60;;
7316;SDS011;3699;51.462;6.696;2023-04-03T15:19:46;6.50;;;4.13;;
7316;SDS011;3699;51.462;6.696;2023-04-03T15:22:15;4.53;;;1.97;;
7316;SDS011;3699;51.462;6.696;2023-04-03T15:24:42;4.07;;;2.10;;
7316;SDS011;3699;51.462;6.696;2023-04-03T15:27:10;2.63;;;1.90;;
7316;SDS011;3699;51.462;6.696;2023-04-03T15:29:38;7.03;;;2.10;;
7316;SDS011;3699;51.462;6.696;2023-04-03T15:32:06;2.60;;;1.77;;
7316;SDS011;3699;51.462;6.696;2023-04-03T15:34:33;5.57;;;2.00;;
7316;SDS011;3699;51.462;6.696;2023-04-03T15:37:00;2.80;;;1.90;;
7316;SDS011;3699;51.462;6.696;2023-04-03T15:39:29;2.60;;;1.90;;
7316;SDS011;3699;51.462;6.696;2023-04-03T15:41:55;2.93;;;2.00;;
7316;SDS011;3699;51.462;6.696;2023-04-03T15:44:24;4.33;;;1.77;;
7316;SDS011;3699;51.462;6.696;2023-04-03T15:46:52;3.03;;;1.93;;
7316;SDS011;3699;51.462;6.696;2023-04-03T15:49:19;3.17;;;1.80;;
7316;SDS011;3699;51.462;6.696;2023-04-03T15:51:48;4.83;;;2.13;;
7316;SDS011;3699;51.462;6.696;2023-04-03T15:54:14;5.03;;;2.10;;